sensor_id;sensor_type;location;lat;lon;timestamp;pressure;altitude;pressure_sealevel;temperature;humidity
7337;BME280;54510;42.016;23.098;2023-09-08T05:56:33;-21766.56;;;23.12;56.61
7337;BME280;54510;42.016;23.098;2023-09-08T05:58:58;-21769.03;;;23.21;56.80
7337;BME280;54510;42.016;23.098;2023-09-08T06:01:26;-21767.81;;;23.16;56.31
7337;BME280;54510;42.016;23.098;2023-09-08T06:03:52;-21770.25;;;23.26;56.32
7337;BME280;54510;42.016;23.098;2023-09-08T06:06:19;-21773.25;;;23.37;56.23
7337;BME280;54510;42.016;23.098;2023-09-08T06:08:45;-21774.63;;;23.42;55.91
7337;BME280;54510;42.016;23.098;2023-09-08T06:11:10;-21776.41;;;23.48;55.36
7337;BME280;54510;42.016;23.098;2023-09-08T06:13:37;-21779.94;;;23.61;55.07
7337;BME280;54510;42.016;23.098;2023-09-08T06:16:03;-21782.00;;;23.69;54.71
7337;BME280;54510;42.016;23.098;2023-09-08T06:18:28;-21784.47;;;23.78;54.46
7337;BME280;54510;42.016;23.098;2023-09-08T06:20:55;-21782.00;;;23.69;54.22
7337;BME280;54510;42.016;23.098;2023-09-08T06:23:21;-21784.47;;;23.78;54.33
7337;BME280;54510;42.016;23.098;2023-09-08T06:25:47;-21786.91;;;23.87;54.02
7337;BME280;54510;42.016;23.098;2023-09-08T06:28:12;-21789.22;;;23.96;53.39
7337;BME280;54510;42.016;23.098;2023-09-08T06:30:37;-21791.69;;;24.05;53.66
7337;BME280;54510;42.016;23.098;2023-09-08T06:33:07;-21794.00;;;24.14;53.17
7337;BME280;54510;42.016;23.098;2023-09-08T06:35:33;-21797.81;;;24.28;53.08
7337;BME280;54510;42.016;23.098;2023-09-08T06:37:59;-21799.72;;;24.35;52.18
7337;BME280;54510;42.016;23.098;2023-09-08T06:40:25;-21799.19;;;24.33;51.52
7337;BME280;54510;42.016;23.098;2023-09-08T06:42:50;-21802.31;;;24.45;50.77
7337;BME280;54510;42.016;23.098;2023-09-08T06:45:16;-21806.81;;;24.61;49.97
7337;BME280;54510;42.016;23.098;2023-09-08T06:47:41;-21807.09;;;24.62;49.21
7337;BME280;54510;42.016;23.098;2023-09-08T06:50:07;-21809.00;;;24.69;49.11
7337;BME280;54510;42.016;23.098;2023-09-08T06:52:32;-21814.31;;;24.89;48.98
7337;BME280;54510;42.016;23.098;2023-09-08T06:54:58;-21815.25;;;24.93;48.61
7337;BME280;54510;42.016;23.098;2023-09-08T06:57:23;-21818.94;;;25.06;48.14
7337;BME280;54510;42.016;23.098;2023-09-08T06:59:48;-21822.19;;;25.18;48.15
7337;BME280;54510;42.016;23.098;2023-09-08T07:02:14;-21826.16;;;25.33;48.00
7337;BME280;54510;42.016;23.098;2023-09-08T07:04:39;-21828.88;;;25.43;47.78
7337;BME280;54510;42.016;23.098;2023-09-08T07:07:05;-21826.97;;;25.36;47.51
7337;BME280;54510;42.016;23.098;2023-09-08T07:09:36;-21831.31;;;25.52;47.57
7337;BME280;54510;42.016;23.098;2023-09-08T07:12:05;-21833.50;;;25.61;47.29
7337;BME280;54510;42.016;23.098;2023-09-08T07:14:31;-21832.69;;;25.58;46.92
7337;BME280;54510;42.016;23.098;2023-09-08T07:16:57;-21837.84;;;25.77;46.61
7337;BME280;54510;42.016;23.098;2023-09-08T07:19:23;-21842.22;;;25.93;46.35
7337;BME280;54510;42.016;23.098;2023-09-08T07:21:48;-21843.03;;;25.96;45.96
7337;BME280;54510;42.016;23.098;2023-09-08T07:24:13;-21841.53;;;25.90;45.71
7337;BME280;54510;42.016;23.098;2023-09-08T07:26:39;-21845.06;;;26.04;44.94
7337;BME280;54510;42.016;23.098;2023-09-08T07:29:04;-21845.47;;;26.05;44.87
7337;BME280;54510;42.016;23.098;2023-09-08T07:31:30;-21843.97;;;26.00;44.41
7337;BME280;54510;42.016;23.098;2023-09-08T07:33:55;-21843.97;;;26.00;44.03
7337;BME280;54510;42.016;23.098;2023-09-08T07:36:20;-21846.00;;;26.07;44.46
7337;BME280;54510;42.016;23.098;2023-09-08T07:38:46;-21845.88;;;26.07;43.29
7337;BME280;54510;42.016;23.098;2023-09-08T07:41:11;-21845.19;;;26.04;43.07
7337;BME280;54510;42.016;23.098;2023-09-08T07:43:37;-21847.91;;;26.14;43.45
7337;BME280;54510;42.016;23.098;2023-09-08T07:46:06;-21852.69;;;26.32;43.05
7337;BME280;54510;42.016;23.098;2023-09-08T07:48:31;-21853.91;;;26.37;42.68
7337;BME280;54510;42.016;23.098;2023-09-08T07:50:57;-21861.50;;;26.65;42.22
7337;BME280;54510;42.016;23.098;2023-09-08T07:53:24;-21862.88;;;26.70;42.62
7337;BME280;54510;42.016;23.098;2023-09-08T07:55:50;-21861.22;;;26.64;41.95
7337;BME280;54510;42.016;23.098;2023-09-08T07:58:15;-21863.28;;;26.71;41.59
7337;BME280;54510;42.016;23.098;2023-09-08T08:00:41;-21867.34;;;26.87;42.17
7337;BME280;54510;42.016;23.098;2023-09-08T08:03:06;-21869.78;;;26.96;41.46
7337;BME280;54510;42.016;23.098;2023-09-08T08:05:31;-21871.00;;;27.00;40.77
7337;BME280;54510;42.016;23.098;2023-09-08T08:07:57;-21873.19;;;27.08;41.06
7337;BME280;54510;42.016;23.098;2023-09-08T08:10:22;-21869.38;;;26.94;40.79
7337;BME280;54510;42.016;23.098;2023-09-08T08:12:47;-21873.72;;;27.10;41.53
7337;BME280;54510;42.016;23.098;2023-09-08T08:15:13;-21872.66;;;27.06;40.38
7337;BME280;54510;42.016;23.098;2023-09-08T08:17:39;-21878.06;;;27.27;39.75
7337;BME280;54510;42.016;23.098;2023-09-08T08:20:06;-21876.31;;;27.20;40.09
7337;BME280;54510;42.016;23.098;2023-09-08T08:22:33;-21875.34;;;27.17;39.80
7337;BME280;54510;42.016;23.098;2023-09-08T08:24:59;-21877.38;;;27.24;39.68
7337;BME280;54510;42.016;23.098;2023-09-08T08:27:25;-21882.13;;;27.42;39.61
7337;BME280;54510;42.016;23.098;2023-09-08T08:29:50;-21880.78;;;27.37;39.71
7337;BME280;54510;42.016;23.098;2023-09-08T08:32:16;-21877.53;;;27.25;39.05
7337;BME280;54510;42.016;23.098;2023-09-08T08:34:42;-21882.00;;;27.41;39.04
7337;BME280;54510;42.016;23.098;2023-09-08T08:37:07;-21885.41;;;27.54;38.71
7337;BME280;54510;42.016;23.098;2023-09-08T08:39:32;-21882.94;;;27.45;39.16
7337;BME280;54510;42.016;23.098;2023-09-08T08:41:58;-21884.03;;;27.49;39.13
7337;BME280;54510;42.016;23.098;2023-09-08T08:44:24;-21884.59;;;27.51;38.80
7337;BME280;54510;42.016;23.098;2023-09-08T08:46:50;-21886.34;;;27.58;38.24
7337;BME280;54510;42.016;23.098;2023-09-08T08:49:16;-21888.38;;;27.65;38.08
7337;BME280;54510;42.016;23.098;2023-09-08T08:51:44;-21893.94;;;27.86;38.59
7337;BME280;54510;42.016;23.098;2023-09-08T08:54:12;-21900.59;;;28.11;38.64
7337;BME280;54510;42.016;23.098;2023-09-08T08:56:38;-21897.75;;;28.00;36.92
7337;BME280;54510;42.016;23.098;2023-09-08T08:59:04;-21896.53;;;27.96;35.74
7337;BME280;54510;42.016;23.098;2023-09-08T09:01:30;-21898.00;;;28.01;35.42
7337;BME280;54510;42.016;23.098;2023-09-08T09:03:57;-21895.69;;;27.92;35.34
7337;BME280;54510;42.016;23.098;2023-09-08T09:06:23;-21909.13;;;28.43;35.26
7337;BME280;54510;42.016;23.098;2023-09-08T09:08:48;-21914.00;;;28.61;34.38
7337;BME280;54510;42.016;23.098;2023-09-08T09:11:14;-21915.47;;;28.66;34.55
7337;BME280;54510;42.016;23.098;2023-09-08T09:13:40;-21914.53;;;28.63;34.12
7337;BME280;54510;42.016;23.098;2023-09-08T09:16:05;-21919.97;;;28.83;34.17
7337;BME280;54510;42.016;23.098;2023-09-08T09:18:56;-21924.56;;;29.00;33.74
7337;BME280;54510;42.016;23.098;2023-09-08T09:21:22;-21921.72;;;28.90;33.80
7337;BME280;54510;42.016;23.098;2023-09-08T09:23:47;-21925.50;;;29.04;33.97
7337;BME280;54510;42.016;23.098;2023-09-08T09:26:24;-21926.31;;;29.07;33.97
7337;BME280;54510;42.016;23.098;2023-09-08T09:28:50;-21927.53;;;29.12;33.90
7337;BME280;54510;42.016;23.098;2023-09-08T09:31:17;-21930.66;;;29.23;33.26
7337;BME280;54510;42.016;23.098;2023-09-08T09:33:43;-21929.69;;;29.20;33.34
7337;BME280;54510;42.016;23.098;2023-09-08T09:36:09;-21929.28;;;29.18;33.36
7337;BME280;54510;42.016;23.098;2023-09-08T09:38:35;-21919.56;;;28.82;33.93
7337;BME280;54510;42.016;23.098;2023-09-08T09:41:00;-21920.22;;;28.84;33.99
7337;BME280;54510;42.016;23.098;2023-09-08T09:43:27;-21922.25;;;28.92;35.13
7337;BME280;54510;42.016;23.098;2023-09-08T09:45:53;-21924.97;;;29.02;35.05
7337;BME280;54510;42.016;23.098;2023-09-08T09:48:20;-21925.63;;;29.04;34.30
7337;BME280;54510;42.016;23.098;2023-09-08T09:50:45;-21926.84;;;29.09;34.76
7337;BME280;54510;42.016;23.098;2023-09-08T09:53:15;-21928.34;;;29.15;34.13
7337;BME280;54510;42.016;23.098;2023-09-08T09:55:43;-21926.59;;;29.08;34.51
7337;BME280;54510;42.016;23.098;2023-09-08T09:58:09;-21926.59;;;29.08;34.64
7337;BME280;54510;42.016;23.098;2023-09-08T10:00:39;-21919.00;;;28.80;34.33
7337;BME280;54510;42.016;23.098;2023-09-08T10:03:13;-21925.38;;;29.03;34.13
7337;BME280;54510;42.016;23.098;2023-09-08T10:05:38;-21923.19;;;28.95;34.53
7337;BME280;54510;42.016;23.098;2023-09-08T10:08:04;-21922.41;;;28.92;34.20
7337;BME280;54510;42.016;23.098;2023-09-08T10:10:32;-21927.94;;;29.13;34.19
7337;BME280;54510;42.016;23.098;2023-09-08T10:13:03;-21931.72;;;29.27;33.65
7337;BME280;54510;42.016;23.098;2023-09-08T10:15:30;-21932.94;;;29.32;33.92
7337;BME280;54510;42.016;23.098;2023-09-08T10:17:56;-21935.66;;;29.42;33.69
7337;BME280;54510;42.016;23.098;2023-09-08T10:20:27;-21935.13;;;29.40;33.20
7337;BME280;54510;42.016;23.098;2023-09-08T10:23:06;-21935.13;;;29.40;33.40
7337;BME280;54510;42.016;23.098;2023-09-08T10:25:35;-21935.91;;;29.43;33.15
7337;BME280;54510;42.016;23.098;2023-09-08T10:28:03;-21936.47;;;29.45;32.93
7337;BME280;54510;42.016;23.098;2023-09-08T10:30:29;-21940.91;;;29.62;32.99
7337;BME280;54510;42.016;23.098;2023-09-08T10:32:56;-21939.56;;;29.57;32.54
7337;BME280;54510;42.016;23.098;2023-09-08T10:35:22;-21937.69;;;29.50;32.25
7337;BME280;54510;42.016;23.098;2023-09-08T10:37:48;-21940.78;;;29.61;32.18
7337;BME280;54510;42.016;23.098;2023-09-08T10:40:21;-21945.13;;;29.77;32.54
7337;BME280;54510;42.016;23.098;2023-09-08T10:42:47;-21949.44;;;29.94;32.10
7337;BME280;54510;42.016;23.098;2023-09-08T10:45:17;-21946.06;;;29.81;32.06
7337;BME280;54510;42.016;23.098;2023-09-08T10:50:18;-21951.47;;;30.01;31.59
7337;BME280;54510;42.016;23.098;2023-09-08T10:52:45;-21949.44;;;29.94;31.39
7337;BME280;54510;42.016;23.098;2023-09-08T10:55:35;-21956.19;;;30.19;31.88
7337;BME280;54510;42.016;23.098;2023-09-08T10:58:03;-21957.28;;;30.23;31.30
7337;BME280;54510;42.016;23.098;2023-09-08T11:00:42;-21959.56;;;30.32;31.15
7337;BME280;54510;42.016;23.098;2023-09-08T11:03:08;-21960.78;;;30.36;31.17
7337;BME280;54510;42.016;23.098;2023-09-08T11:05:34;-21962.41;;;30.42;30.73
7337;BME280;54510;42.016;23.098;2023-09-08T11:08:00;-21963.50;;;30.46;30.64
7337;BME280;54510;42.016;23.098;2023-09-08T11:10:26;-21964.16;;;30.49;30.48
7337;BME280;54510;42.016;23.098;2023-09-08T11:12:54;-21960.25;;;30.34;30.33
7337;BME280;54510;42.016;23.098;2023-09-08T11:15:19;-21953.75;;;30.10;30.32
7337;BME280;54510;42.016;23.098;2023-09-08T11:17:45;-21959.16;;;30.30;30.23
7337;BME280;54510;42.016;23.098;2023-09-08T11:20:15;-21965.38;;;30.53;29.58
7337;BME280;54510;42.016;23.098;2023-09-08T11:22:41;-21966.47;;;30.57;29.44
7337;BME280;54510;42.016;23.098;2023-09-08T11:25:08;-21968.75;;;30.66;29.25
7337;BME280;54510;42.016;23.098;2023-09-08T11:27:36;-21972.66;;;30.81;29.49
7337;BME280;54510;42.016;23.098;2023-09-08T11:30:01;-21975.78;;;30.92;29.65
7337;BME280;54510;42.016;23.098;2023-09-08T11:32:33;-21978.06;;;31.01;29.12
7337;BME280;54510;42.016;23.098;2023-09-08T11:35:05;-21976.84;;;30.96;29.34
7337;BME280;54510;42.016;23.098;2023-09-08T11:37:39;-21982.25;;;31.17;29.32
7337;BME280;54510;42.016;23.098;2023-09-08T11:40:06;-21980.91;;;31.12;29.27
7337;BME280;54510;42.016;23.098;2023-09-08T11:42:43;-21981.72;;;31.15;27.99
7337;BME280;54510;42.016;23.098;2023-09-08T11:45:13;-21981.44;;;31.14;28.26
7337;BME280;54510;42.016;23.098;2023-09-08T11:47:42;-21989.81;;;31.45;28.49
7337;BME280;54510;42.016;23.098;2023-09-08T11:50:11;-21991.00;;;31.50;28.38
7337;BME280;54510;42.016;23.098;2023-09-08T11:52:40;-21994.94;;;31.64;26.88
7337;BME280;54510;42.016;23.098;2023-09-08T11:55:06;-21996.94;;;31.72;23.32
7337;BME280;54510;42.016;23.098;2023-09-08T11:57:32;-22005.44;;;32.04;23.43
7337;BME280;54510;42.016;23.098;2023-09-08T11:59:58;-22007.31;;;32.11;22.71
7337;BME280;54510;42.016;23.098;2023-09-08T12:02:25;-22018.50;;;32.53;22.78
7337;BME280;54510;42.016;23.098;2023-09-08T12:04:53;-22022.94;;;32.70;22.12
7337;BME280;54510;42.016;23.098;2023-09-08T12:07:19;-22033.81;;;33.11;22.14
7337;BME280;54510;42.016;23.098;2023-09-08T12:09:45;-22029.25;;;32.93;22.32
7337;BME280;54510;42.016;23.098;2023-09-08T12:12:13;-22030.88;;;33.00;21.76
7337;BME280;54510;42.016;23.098;2023-09-08T12:14:42;-22037.72;;;33.25;21.52
7337;BME280;54510;42.016;23.098;2023-09-08T12:17:07;-22040.53;;;33.36;21.44
7337;BME280;54510;42.016;23.098;2023-09-08T12:19:33;-22031.81;;;33.03;21.06
7337;BME280;54510;42.016;23.098;2023-09-08T12:22:03;-22038.00;;;33.26;21.61
7337;BME280;54510;42.016;23.098;2023-09-08T12:24:49;-22045.50;;;33.55;21.51
7337;BME280;54510;42.016;23.098;2023-09-08T12:27:16;-22035.16;;;33.16;21.07
7337;BME280;54510;42.016;23.098;2023-09-08T12:30:00;-22046.44;;;33.58;21.35
7337;BME280;54510;42.016;23.098;2023-09-08T12:32:29;-22045.09;;;33.53;21.84
7337;BME280;54510;42.016;23.098;2023-09-08T12:34:55;-22046.44;;;33.58;21.32
7337;BME280;54510;42.016;23.098;2023-09-08T12:37:21;-22046.06;;;33.57;21.32
7337;BME280;54510;42.016;23.098;2023-09-08T12:39:47;-22046.06;;;33.57;21.67
7337;BME280;54510;42.016;23.098;2023-09-08T12:42:12;-22046.59;;;33.59;21.62
7337;BME280;54510;42.016;23.098;2023-09-08T12:44:38;-22053.56;;;33.85;21.17
7337;BME280;54510;42.016;23.098;2023-09-08T12:47:04;-22056.25;;;33.95;21.17
7337;BME280;54510;42.016;23.098;2023-09-08T12:49:29;-22049.94;;;33.71;20.76
7337;BME280;54510;42.016;23.098;2023-09-08T12:51:54;-22060.69;;;34.12;21.64
7337;BME280;54510;42.016;23.098;2023-09-08T12:54:24;-22057.06;;;33.98;21.51
7337;BME280;54510;42.016;23.098;2023-09-08T12:56:51;-22059.06;;;34.06;20.74
7337;BME280;54510;42.016;23.098;2023-09-08T12:59:17;-22063.09;;;34.21;19.97
7337;BME280;54510;42.016;23.098;2023-09-08T13:01:42;-22056.78;;;33.97;19.59
7337;BME280;54510;42.016;23.098;2023-09-08T13:04:08;-22060.69;;;34.12;20.30
7337;BME280;54510;42.016;23.098;2023-09-08T13:06:33;-22060.41;;;34.11;20.01
7337;BME280;54510;42.016;23.098;2023-09-08T13:09:00;-22060.81;;;34.13;20.44
7337;BME280;54510;42.016;23.098;2023-09-08T13:11:25;-22063.50;;;34.23;20.23
7337;BME280;54510;42.016;23.098;2023-09-08T13:13:51;-22063.78;;;34.24;20.14
7337;BME280;54510;42.016;23.098;2023-09-08T13:16:16;-22068.88;;;34.43;20.30
7337;BME280;54510;42.016;23.098;2023-09-08T13:18:42;-22066.72;;;34.35;20.82
7337;BME280;54510;42.016;23.098;2023-09-08T13:21:10;-22080.53;;;34.87;20.34
7337;BME280;54510;42.016;23.098;2023-09-08T13:23:35;-22083.09;;;34.97;20.48
7337;BME280;54510;42.016;23.098;2023-09-08T13:26:01;-22091.38;;;35.28;20.25
7337;BME280;54510;42.016;23.098;2023-09-08T13:28:26;-22087.38;;;35.13;20.33
7337;BME280;54510;42.016;23.098;2023-09-08T13:30:52;-22072.91;;;34.58;20.37
7337;BME280;54510;42.016;23.098;2023-09-08T13:33:17;-22074.91;;;34.66;20.20
7337;BME280;54510;42.016;23.098;2023-09-08T13:35:42;-22078.25;;;34.78;20.90
7337;BME280;54510;42.016;23.098;2023-09-08T13:38:08;-22087.63;;;35.14;21.04
7337;BME280;54510;42.016;23.098;2023-09-08T13:40:33;-22095.13;;;35.42;20.55
7337;BME280;54510;42.016;23.098;2023-09-08T13:42:59;-22092.19;;;35.31;20.49
7337;BME280;54510;42.016;23.098;2023-09-08T13:45:25;-22097.28;;;35.50;20.45
7337;BME280;54510;42.016;23.098;2023-09-08T13:47:51;-22085.75;;;35.07;20.39
7337;BME280;54510;42.016;23.098;2023-09-08T13:50:16;-22095.00;;;35.42;20.31
7337;BME280;54510;42.016;23.098;2023-09-08T13:52:42;-22080.41;;;34.86;20.45
7337;BME280;54510;42.016;23.098;2023-09-08T13:55:09;-22086.28;;;35.09;20.11
7337;BME280;54510;42.016;23.098;2023-09-08T13:57:36;-22085.34;;;35.05;20.21
7337;BME280;54510;42.016;23.098;2023-09-08T14:00:02;-22092.72;;;35.33;19.91
7337;BME280;54510;42.016;23.098;2023-09-08T14:02:28;-22095.66;;;35.44;19.79
7337;BME280;54510;42.016;23.098;2023-09-08T14:04:53;-22083.34;;;34.98;19.94
7337;BME280;54510;42.016;23.098;2023-09-08T14:07:19;-22084.97;;;35.04;19.57
7337;BME280;54510;42.016;23.098;2023-09-08T14:09:44;-22085.34;;;35.05;19.94
7337;BME280;54510;42.016;23.098;2023-09-08T14:12:09;-22091.38;;;35.28;19.98
7337;BME280;54510;42.016;23.098;2023-09-08T14:14:35;-22080.81;;;34.88;20.37
7337;BME280;54510;42.016;23.098;2023-09-08T14:17:00;-22083.88;;;35.00;20.23
7337;BME280;54510;42.016;23.098;2023-09-08T14:19:26;-22084.28;;;35.01;20.68
7337;BME280;54510;42.016;23.098;2023-09-08T14:21:51;-22088.72;;;35.18;20.66
7337;BME280;54510;42.016;23.098;2023-09-08T14:24:16;-22079.59;;;34.83;21.19
7337;BME280;54510;42.016;23.098;2023-09-08T14:26:42;-22092.47;;;35.32;20.88
7337;BME280;54510;42.016;23.098;2023-09-08T14:29:07;-22091.66;;;35.29;19.95
7337;BME280;54510;42.016;23.098;2023-09-08T14:31:33;-22088.72;;;35.18;20.60
7337;BME280;54510;42.016;23.098;2023-09-08T14:33:59;-22072.50;;;34.57;21.58
7337;BME280;54510;42.016;23.098;2023-09-08T14:36:24;-22070.06;;;34.47;21.68
7337;BME280;54510;42.016;23.098;2023-09-08T14:38:50;-22073.56;;;34.61;21.39
7337;BME280;54510;42.016;23.098;2023-09-08T14:41:15;-22068.47;;;34.41;21.53
7337;BME280;54510;42.016;23.098;2023-09-08T14:43:41;-22066.72;;;34.35;22.01
7337;BME280;54510;42.016;23.098;2023-09-08T14:46:07;-22057.06;;;33.98;22.79
7337;BME280;54510;42.016;23.098;2023-09-08T14:48:32;-22053.56;;;33.85;22.66
7337;BME280;54510;42.016;23.098;2023-09-08T14:50:58;-22044.31;;;33.50;22.77
7337;BME280;54510;42.016;23.098;2023-09-08T14:53:24;-22053.16;;;33.84;22.66
7337;BME280;54510;42.016;23.098;2023-09-08T14:55:49;-22044.16;;;33.50;22.87
7337;BME280;54510;42.016;23.098;2023-09-08T14:58:15;-22042.81;;;33.45;23.30
7337;BME280;54510;42.016;23.098;2023-09-08T15:00:41;-22043.22;;;33.46;22.86
7337;BME280;54510;42.016;23.098;2023-09-08T15:03:07;-22036.25;;;33.20;23.32
7337;BME280;54510;42.016;23.098;2023-09-08T15:05:34;-22035.44;;;33.17;23.37
7337;BME280;54510;42.016;23.098;2023-09-08T15:08:00;-22030.72;;;32.99;23.64
7337;BME280;54510;42.016;23.098;2023-09-08T15:10:26;-22035.69;;;33.18;23.32
7337;BME280;54510;42.016;23.098;2023-09-08T15:12:51;-22033.81;;;33.11;24.08
7337;BME280;54510;42.016;23.098;2023-09-08T15:15:17;-22028.44;;;32.90;23.86
7337;BME280;54510;42.016;23.098;2023-09-08T15:17:50;-22024.81;;;32.77;24.62
7337;BME280;54510;42.016;23.098;2023-09-08T15:20:15;-22012.56;;;32.31;25.24
7337;BME280;54510;42.016;23.098;2023-09-08T15:22:40;-22017.00;;;32.47;24.65
7337;BME280;54510;42.016;23.098;2023-09-08T15:25:06;-22012.69;;;32.31;25.02
7337;BME280;54510;42.016;23.098;2023-09-08T15:27:32;-22008.94;;;32.17;24.52
7337;BME280;54510;42.016;23.098;2023-09-08T15:29:57;-22011.09;;;32.25;24.09
7337;BME280;54510;42.016;23.098;2023-09-08T15:32:23;-22013.25;;;32.33;24.13
7337;BME280;54510;42.016;23.098;2023-09-08T15:34:49;-21998.44;;;31.77;24.57
7337;BME280;54510;42.016;23.098;2023-09-08T15:37:16;-21999.09;;;31.80;24.81
7337;BME280;54510;42.016;23.098;2023-09-08T15:39:42;-22003.13;;;31.95;24.88
7337;BME280;54510;42.016;23.098;2023-09-08T15:42:07;-22001.13;;;31.88;24.92
7337;BME280;54510;42.016;23.098;2023-09-08T15:44:33;-21997.75;;;31.75;25.38
7337;BME280;54510;42.016;23.098;2023-09-08T15:46:58;-21987.78;;;31.37;25.31
7337;BME280;54510;42.016;23.098;2023-09-08T15:49:25;-21984.69;;;31.26;25.64
7337;BME280;54510;42.016;23.098;2023-09-08T15:51:50;-21979.28;;;31.06;26.16
7337;BME280;54510;42.016;23.098;2023-09-08T15:54:16;-21983.72;;;31.22;26.13
7337;BME280;54510;42.016;23.098;2023-09-08T15:56:41;-21988.31;;;31.39;26.15
7337;BME280;54510;42.016;23.098;2023-09-08T15:59:06;-21976.59;;;30.95;26.13
7337;BME280;54510;42.016;23.098;2023-09-08T16:01:32;-21977.25;;;30.98;26.52
7337;BME280;54510;42.016;23.098;2023-09-08T16:03:57;-21985.22;;;31.28;26.46
7337;BME280;54510;42.016;23.098;2023-09-08T16:06:23;-21985.88;;;31.30;25.71
7337;BME280;54510;42.016;23.098;2023-09-08T16:08:49;-21978.19;;;31.01;26.28
7337;BME280;54510;42.016;23.098;2023-09-08T16:11:15;-21983.88;;;31.23;26.54
7337;BME280;54510;42.016;23.098;2023-09-08T16:13:40;-21980.50;;;31.10;25.80
7337;BME280;54510;42.016;23.098;2023-09-08T16:16:06;-21982.91;;;31.19;26.16
7337;BME280;54510;42.016;23.098;2023-09-08T16:18:31;-21984.28;;;31.24;26.32
7337;BME280;54510;42.016;23.098;2023-09-08T16:20:57;-21972.81;;;30.81;26.64
7337;BME280;54510;42.016;23.098;2023-09-08T16:23:22;-21959.97;;;30.33;27.84
7337;BME280;54510;42.016;23.098;2023-09-08T16:25:48;-21962.81;;;30.44;27.95
7337;BME280;54510;42.016;23.098;2023-09-08T16:28:14;-21959.16;;;30.30;28.55
7337;BME280;54510;42.016;23.098;2023-09-08T16:30:40;-21958.22;;;30.27;28.52
7337;BME280;54510;42.016;23.098;2023-09-08T16:33:05;-21956.75;;;30.21;28.74
7337;BME280;54510;42.016;23.098;2023-09-08T16:35:30;-21952.69;;;30.06;28.78
7337;BME280;54510;42.016;23.098;2023-09-08T16:37:56;-21945.13;;;29.77;29.10
7337;BME280;54510;42.016;23.098;2023-09-08T16:40:21;-21945.78;;;29.80;29.09
7337;BME280;54510;42.016;23.098;2023-09-08T16:42:51;-21940.78;;;29.61;29.29
7337;BME280;54510;42.016;23.098;2023-09-08T16:45:16;-21945.78;;;29.80;29.11
7337;BME280;54510;42.016;23.098;2023-09-08T16:47:42;-21942.28;;;29.67;29.29
7337;BME280;54510;42.016;23.098;2023-09-08T16:50:08;-21936.47;;;29.45;29.09
7337;BME280;54510;42.016;23.098;2023-09-08T16:52:33;-21934.16;;;29.36;29.89
7337;BME280;54510;42.016;23.098;2023-09-08T16:54:59;-21937.94;;;29.51;29.78
7337;BME280;54510;42.016;23.098;2023-09-08T16:57:24;-21936.06;;;29.43;29.54
7337;BME280;54510;42.016;23.098;2023-09-08T16:59:50;-21920.78;;;28.86;29.60
7337;BME280;54510;42.016;23.098;2023-09-08T17:02:15;-21928.34;;;29.15;29.51
7337;BME280;54510;42.016;23.098;2023-09-08T17:04:41;-21924.81;;;29.01;29.61
7337;BME280;54510;42.016;23.098;2023-09-08T17:07:09;-21924.44;;;29.00;30.04
7337;BME280;54510;42.016;23.098;2023-09-08T17:09:35;-21911.56;;;28.52;30.25
7337;BME280;54510;42.016;23.098;2023-09-08T17:12:00;-21913.06;;;28.57;31.16
7337;BME280;54510;42.016;23.098;2023-09-08T17:14:26;-21910.88;;;28.49;32.08
7337;BME280;54510;42.016;23.098;2023-09-08T17:16:51;-21900.72;;;28.11;32.97
7337;BME280;54510;42.016;23.098;2023-09-08T17:19:17;-21898.00;;;28.01;33.31
7337;BME280;54510;42.016;23.098;2023-09-08T17:21:43;-21895.97;;;27.94;33.16
7337;BME280;54510;42.016;23.098;2023-09-08T17:24:08;-21890.69;;;27.74;34.12
7337;BME280;54510;42.016;23.098;2023-09-08T17:26:34;-21888.38;;;27.65;34.17
7337;BME280;54510;42.016;23.098;2023-09-08T17:28:59;-21887.03;;;27.60;33.37
7337;BME280;54510;42.016;23.098;2023-09-08T17:31:25;-21886.22;;;27.57;33.06
7337;BME280;54510;42.016;23.098;2023-09-08T17:33:50;-21885.66;;;27.55;32.15
7337;BME280;54510;42.016;23.098;2023-09-08T17:36:16;-21887.31;;;27.61;32.93
7337;BME280;54510;42.016;23.098;2023-09-08T17:38:42;-21885.66;;;27.55;33.38
7337;BME280;54510;42.016;23.098;2023-09-08T17:41:07;-21881.59;;;27.40;33.65
7337;BME280;54510;42.016;23.098;2023-09-08T17:43:33;-21873.88;;;27.11;34.49
7337;BME280;54510;42.016;23.098;2023-09-08T17:46:00;-21873.72;;;27.10;35.05
7337;BME280;54510;42.016;23.098;2023-09-08T17:48:26;-21871.28;;;27.01;35.06
7337;BME280;54510;42.016;23.098;2023-09-08T17:50:51;-21871.00;;;27.00;35.21
7337;BME280;54510;42.016;23.098;2023-09-08T17:53:17;-21862.44;;;26.68;35.52
7337;BME280;54510;42.016;23.098;2023-09-08T17:55:42;-21859.47;;;26.57;35.77
7337;BME280;54510;42.016;23.098;2023-09-08T17:58:07;-21856.22;;;26.45;36.45
7337;BME280;54510;42.016;23.098;2023-09-08T18:00:33;-21852.13;;;26.30;36.71
7337;BME280;54510;42.016;23.098;2023-09-08T18:02:58;-21849.41;;;26.20;36.82
7337;BME280;54510;42.016;23.098;2023-09-08T18:05:23;-21847.25;;;26.12;36.68
7337;BME280;54510;42.016;23.098;2023-09-08T18:07:50;-21841.38;;;25.90;36.95
7337;BME280;54510;42.016;23.098;2023-09-08T18:10:15;-21840.56;;;25.87;37.36
7337;BME280;54510;42.016;23.098;2023-09-08T18:12:41;-21835.94;;;25.70;37.16
7337;BME280;54510;42.016;23.098;2023-09-08T18:15:07;-21838.25;;;25.78;37.40
7337;BME280;54510;42.016;23.098;2023-09-08T18:17:33;-21832.53;;;25.57;37.49
7337;BME280;54510;42.016;23.098;2023-09-08T18:19:59;-21841.94;;;25.92;36.94
7337;BME280;54510;42.016;23.098;2023-09-08T18:22:25;-21832.69;;;25.58;37.48
7337;BME280;54510;42.016;23.098;2023-09-08T18:24:51;-21825.47;;;25.31;37.96
7337;BME280;54510;42.016;23.098;2023-09-08T18:27:17;-21829.28;;;25.45;37.86
7337;BME280;54510;42.016;23.098;2023-09-08T18:29:43;-21829.00;;;25.44;38.00
7337;BME280;54510;42.016;23.098;2023-09-08T18:32:08;-21826.69;;;25.35;38.12
7337;BME280;54510;42.016;23.098;2023-09-08T18:34:34;-21830.78;;;25.50;37.80
7337;BME280;54510;42.016;23.098;2023-09-08T18:36:59;-21827.38;;;25.38;38.07
7337;BME280;54510;42.016;23.098;2023-09-08T18:39:24;-21822.34;;;25.19;38.38
7337;BME280;54510;42.016;23.098;2023-09-08T18:41:50;-21827.66;;;25.39;38.18
7337;BME280;54510;42.016;23.098;2023-09-08T18:44:15;-21830.38;;;25.49;38.14